Time;durP1;ratioP1;P1;durP2;ratioP2;P2;SDS_P1;SDS_P2;PMS_P1;PMS_P2;Temp;Humidity;BMP_temperature;BMP_pressure;BME280_temperature;BME280_humidity;BME280_pressure;Samples;Min_cycle;Max_cycle;Signal;HPM_P1;HPM_P2
2023/01/24 00:01:26;;;;;;;9.77;4.15;;;5.40;99.90;;;;;;6161145;23;20021;-79
2023/01/24 00:03:56;;;;;;;8.13;3.83;;;5.40;99.90;;;;;;6210037;23;20290;-79
2023/01/24 00:06:25;;;;;;;11.93;4.47;;;5.40;99.90;;;;;;6162881;23;20028;-79
2023/01/24 00:08:53;;;;;;;10.95;4.45;;;5.40;99.90;;;;;;6187658;23;20486;-79
2023/01/24 00:11:20;;;;;;;11.60;4.20;;;5.40;99.90;;;;;;6163641;23;20017;-79
2023/01/24 00:13:48;;;;;;;11.90;5.05;;;5.40;99.90;;;;;;6189782;23;20044;-79
2023/01/24 00:16:19;;;;;;;9.25;4.00;;;5.30;99.90;;;;;;6188838;23;20013;-79
2023/01/24 00:18:47;;;;;;;10.10;5.35;;;5.00;99.90;;;;;;6173058;23;20035;-79
2023/01/24 00:21:21;;;;;;;13.38;5.15;;;5.30;99.90;;;;;;6185894;23;20488;-79
2023/01/24 00:23:51;;;;;;;9.68;4.65;;;5.30;99.90;;;;;;6187152;23;20024;-79
2023/01/24 00:26:21;;;;;;;10.02;4.75;;;5.30;99.90;;;;;;6185566;23;20076;-79
2023/01/24 00:28:49;;;;;;;11.50;5.15;;;5.30;99.90;;;;;;6185389;23;20028;-79
2023/01/24 00:31:17;;;;;;;11.60;4.63;;;5.30;99.90;;;;;;6160295;23;20017;-79
2023/01/24 00:33:44;;;;;;;11.13;4.90;;;5.30;99.90;;;;;;6182381;23;20025;-79
2023/01/24 00:36:12;;;;;;;8.98;4.07;;;5.20;99.90;;;;;;6160374;23;20396;-79
2023/01/24 00:38:40;;;;;;;9.88;4.78;;;5.30;99.90;;;;;;6157557;23;20045;-79
2023/01/24 00:41:08;;;;;;;10.20;4.55;;;5.30;99.90;;;;;;6182484;23;20289;-77
2023/01/24 00:43:35;;;;;;;12.75;5.38;;;5.30;99.90;;;;;;6181132;23;20028;-79
2023/01/24 00:46:06;;;;;;;12.32;5.32;;;5.20;99.90;;;;;;6158093;23;20047;-79
2023/01/24 00:48:34;;;;;;;10.93;4.80;;;5.60;99.90;;;;;;6186000;23;20080;-79
2023/01/24 00:51:01;;;;;;;11.70;5.03;;;5.20;99.90;;;;;;6159934;23;20021;-80
2023/01/24 00:53:29;;;;;;;11.77;5.00;;;5.70;99.90;;;;;;6183457;23;20099;-79
2023/01/24 00:55:56;;;;;;;10.63;4.47;;;5.20;99.90;;;;;;6181902;23;20468;-79
2023/01/24 00:58:24;;;;;;;12.93;5.85;;;5.20;99.90;;;;;;6182091;23;20092;-78
2023/01/24 01:00:56;;;;;;;12.23;5.30;;;5.20;99.90;;;;;;6182567;23;20040;-78
2023/01/24 01:03:24;;;;;;;10.50;5.15;;;5.20;99.90;;;;;;6163573;23;20003;-78
2023/01/24 01:06:03;;;;;;;15.75;5.00;;;5.20;99.90;;;;;;6186651;23;20048;-78
2023/01/24 01:08:31;;;;;;;9.48;4.10;;;5.20;99.90;;;;;;6215664;23;20031;-80
2023/01/24 01:11:00;;;;;;;8.55;4.32;;;5.20;99.90;;;;;;6215483;23;20345;-79
2023/01/24 01:13:28;;;;;;;13.55;4.65;;;5.10;99.90;;;;;;6189114;23;20047;-78
2023/01/24 01:16:08;;;;;;;10.75;4.72;;;5.20;99.90;;;;;;6210068;23;20044;-78
2023/01/24 01:18:36;;;;;;;10.70;4.75;;;5.20;99.90;;;;;;6215773;23;20052;-78
2023/01/24 01:21:08;;;;;;;10.90;4.45;;;5.10;99.90;;;;;;6216724;23;20047;-78
2023/01/24 01:23:35;;;;;;;11.85;5.40;;;4.90;99.90;;;;;;6189860;23;20031;-78
2023/01/24 01:26:09;;;;;;;13.07;5.25;;;5.00;99.90;;;;;;6189292;23;20441;-78
2023/01/24 01:28:37;;;;;;;12.43;5.25;;;5.10;99.90;;;;;;6196527;23;20016;-78
2023/01/24 01:31:04;;;;;;;10.30;4.63;;;5.10;99.90;;;;;;6217700;23;20047;-78
2023/01/24 01:33:32;;;;;;;12.00;5.13;;;5.10;99.90;;;;;;6189993;23;20012;-78
2023/01/24 01:36:03;;;;;;;11.75;5.28;;;5.10;99.90;;;;;;6214177;23;20108;-78
2023/01/24 01:38:31;;;;;;;11.75;4.32;;;5.00;99.90;;;;;;6184768;23;20017;-79
2023/01/24 01:40:59;;;;;;;12.50;4.70;;;5.00;99.90;;;;;;6211870;23;20314;-79
2023/01/24 01:43:28;;;;;;;10.43;5.10;;;4.90;99.90;;;;;;6184844;23;20396;-79
2023/01/24 01:46:23;;;;;;;12.95;5.05;;;5.00;99.90;;;;;;6188032;23;20021;-79
2023/01/24 01:48:54;;;;;;;10.75;5.10;;;5.00;99.90;;;;;;6196431;23;20024;-79
2023/01/24 01:51:37;;;;;;;10.18;4.88;;;5.00;99.90;;;;;;6190770;23;20448;-79
2023/01/24 01:54:10;;;;;;;11.27;4.85;;;5.00;99.90;;;;;;6184937;23;20536;-79
2023/01/24 01:56:52;;;;;;;;;;;5.00;99.90;;;;;;6216400;23;20025;-79
2023/01/24 01:59:26;;;;;;;9.57;3.97;;;5.00;99.90;;;;;;6217565;23;19920;-79
2023/01/24 02:01:56;;;;;;;12.20;4.95;;;5.00;99.90;;;;;;6186472;23;20427;-79
2023/01/24 02:04:29;;;;;;;11.07;4.40;;;5.00;99.90;;;;;;6187269;23;20083;-78
2023/01/24 02:07:15;;;;;;;10.35;4.50;;;5.00;99.90;;;;;;6208491;23;20594;-80
2023/01/24 02:09:45;;;;;;;11.38;5.20;;;5.00;99.90;;;;;;6211809;23;20051;-80
2023/01/24 02:12:20;;;;;;;13.43;5.00;;;5.00;99.90;;;;;;6187976;23;20071;-79
2023/01/24 02:17:41;;;;;;;8.88;4.45;;;5.00;99.90;;;;;;6210608;23;20020;-78
2023/01/24 02:20:35;;;;;;;10.63;4.55;;;5.00;99.90;;;;;;6215419;23;20107;-78
2023/01/24 02:23:11;;;;;;;10.88;4.97;;;5.00;99.90;;;;;;6190195;23;20460;-78
2023/01/24 02:26:05;;;;;;;11.55;4.70;;;5.00;99.90;;;;;;6216499;23;20056;-78
2023/01/24 02:28:33;;;;;;;10.52;4.57;;;5.00;99.90;;;;;;6183227;23;20031;-78
2023/01/24 02:31:01;;;;;;;12.95;4.07;;;4.90;99.90;;;;;;6217443;23;20020;-78
2023/01/24 02:33:30;;;;;;;11.38;4.80;;;5.00;99.90;;;;;;6191335;23;20020;-79
2023/01/24 02:36:31;;;;;;;12.65;4.93;;;5.00;99.90;;;;;;6190884;23;20612;-79
2023/01/24 02:39:07;;;;;;;11.33;4.80;;;4.90;99.90;;;;;;6148055;23;20017;-79
2023/01/24 02:41:53;;;;;;;11.65;4.55;;;4.90;99.90;;;;;;6216941;23;20021;-80
2023/01/24 02:44:53;;;;;;;9.43;4.28;;;4.90;99.90;;;;;;6190911;23;20025;-79
2023/01/24 02:47:21;;;;;;;11.93;4.85;;;4.90;99.90;;;;;;6165694;23;20348;-79
2023/01/24 02:49:49;;;;;;;11.43;4.68;;;5.00;99.90;;;;;;6213537;23;20502;-79
2023/01/24 02:55:02;;;;;;;9.70;4.32;;;4.90;99.90;;;;;;6213413;23;20436;-78
2023/01/24 03:00:15;;;;;;;12.02;4.63;;;4.90;99.90;;;;;;6212850;23;20020;-78
2023/01/24 03:02:42;;;;;;;12.50;5.53;;;5.90;99.90;;;;;;6212334;23;20496;-78
2023/01/24 03:05:10;;;;;;;10.63;4.80;;;4.90;99.90;;;;;;6186346;23;20094;-80
2023/01/24 03:07:43;;;;;;;14.48;5.57;;;4.90;99.90;;;;;;6187968;23;20058;-79
2023/01/24 03:10:16;;;;;;;11.75;4.20;;;4.90;99.90;;;;;;6186750;23;20086;-79
2023/01/24 03:34:56;;;;;;;14.15;6.47;;;4.80;99.90;;;;;;6210327;23;20024;-78
2023/01/24 03:40:17;;;;;;;16.98;7.30;;;4.80;99.90;;;;;;6210060;23;20047;-78
2023/01/24 03:42:48;;;;;;;15.20;5.95;;;4.80;99.90;;;;;;6212497;23;20017;-78
2023/01/24 03:45:24;;;;;;;14.15;5.97;;;4.80;99.90;;;;;;6187341;23;20400;-79
2023/01/24 03:47:57;;;;;;;14.07;6.68;;;4.80;99.90;;;;;;6211453;23;20508;-79
2023/01/24 03:53:14;;;;;;;13.48;6.07;;;4.80;99.90;;;;;;6210228;23;20024;-79
2023/01/24 03:55:45;;;;;;;14.00;6.30;;;4.70;99.90;;;;;;6186339;23;20016;-78
2023/01/24 03:58:14;;;;;;;14.75;6.68;;;4.70;99.90;;;;;;6184587;23;20444;-78
2023/01/24 04:00:41;;;;;;;18.50;6.95;;;4.80;99.90;;;;;;6210847;23;20079;-78
2023/01/24 04:03:26;;;;;;;18.75;7.80;;;4.70;99.90;;;;;;6189175;23;20044;-78
2023/01/24 04:05:54;;;;;;;21.45;9.43;;;4.90;99.90;;;;;;6185359;23;20025;-78
2023/01/24 04:08:21;;;;;;;20.15;9.02;;;3.60;99.90;;;;;;6209276;23;20099;-78
2023/01/24 04:10:49;;;;;;;19.27;9.07;;;4.70;99.90;;;;;;6185988;23;20475;-78
2023/01/24 04:13:17;;;;;;;24.05;9.48;;;4.70;99.90;;;;;;6184781;23;20330;-78
2023/01/24 04:15:45;;;;;;;24.73;9.50;;;4.70;99.90;;;;;;6184351;23;20020;-78
2023/01/24 04:18:31;;;;;;;16.98;7.72;;;4.60;99.90;;;;;;6208315;23;20028;-79
2023/01/24 04:21:05;;;;;;;18.77;7.78;;;4.40;99.90;;;;;;6208584;23;20016;-79
2023/01/24 04:23:34;;;;;;;21.95;8.23;;;4.60;99.90;;;;;;6185977;23;20393;-78
2023/01/24 04:26:01;;;;;;;18.27;7.72;;;4.60;99.90;;;;;;6184554;23;20043;-78
2023/01/24 04:28:31;;;;;;;19.25;8.05;;;4.60;99.90;;;;;;6209743;23;20024;-78
2023/01/24 04:31:03;;;;;;;24.73;10.18;;;4.60;99.90;;;;;;6188469;23;20452;-80
2023/01/24 04:33:59;;;;;;;32.20;10.90;;;4.60;99.90;;;;;;6207669;23;20213;-78
2023/01/24 04:36:29;;;;;;;26.17;9.55;;;4.50;99.90;;;;;;6185172;23;20074;-78
2023/01/24 04:38:58;;;;;;;20.30;7.35;;;4.50;99.90;;;;;;6210353;23;20020;-78
2023/01/24 04:41:43;;;;;;;18.10;7.20;;;4.50;99.90;;;;;;6210199;23;20130;-78
2023/01/24 04:44:11;;;;;;;20.35;8.73;;;4.50;99.90;;;;;;6185591;23;20091;-78
2023/01/24 04:46:38;;;;;;;16.63;7.57;;;4.50;99.90;;;;;;6184567;23;20046;-78
2023/01/24 04:49:06;;;;;;;22.60;8.60;;;4.50;99.90;;;;;;6184300;23;20360;-79
2023/01/24 04:51:41;;;;;;;23.38;8.93;;;4.50;99.90;;;;;;6186956;23;20035;-79
2023/01/24 04:54:13;;;;;;;24.85;8.98;;;4.50;99.90;;;;;;6210737;23;20021;-79
2023/01/24 04:56:41;;;;;;;21.13;9.43;;;4.40;99.90;;;;;;6180429;23;20051;-79
2023/01/24 04:59:12;;;;;;;23.23;9.65;;;4.50;99.90;;;;;;6184830;23;20116;-79
2023/01/24 05:01:42;;;;;;;23.65;10.35;;;4.50;99.90;;;;;;6210643;23;20417;-76
2023/01/24 05:04:26;;;;;;;22.23;9.88;;;4.40;99.90;;;;;;6189867;23;20020;-79
2023/01/24 05:06:54;;;;;;;25.67;9.73;;;4.30;99.90;;;;;;6185975;23;20452;-79
2023/01/24 05:09:21;;;;;;;20.15;8.68;;;4.40;99.90;;;;;;6185876;23;20056;-79
2023/01/24 05:11:55;;;;;;;21.73;9.23;;;3.50;99.90;;;;;;6186122;23;20312;-78
2023/01/24 05:14:23;;;;;;;24.30;9.23;;;4.30;99.90;;;;;;6210483;23;20021;-78
2023/01/24 05:16:50;;;;;;;25.95;9.13;;;4.40;99.90;;;;;;6208808;23;20023;-78
2023/01/24 05:19:18;;;;;;;26.20;10.25;;;4.40;99.90;;;;;;6185784;23;20012;-78
2023/01/24 05:21:46;;;;;;;22.48;9.57;;;4.30;99.90;;;;;;6187048;23;20021;-78
2023/01/24 05:24:14;;;;;;;28.33;11.95;;;3.70;99.90;;;;;;6210629;23;20021;-80
2023/01/24 05:26:42;;;;;;;26.00;10.50;;;4.30;99.90;;;;;;6208560;23;20452;-80
2023/01/24 05:29:12;;;;;;;22.92;10.82;;;4.30;99.90;;;;;;6184411;23;20020;-79
2023/01/24 05:31:40;;;;;;;28.98;12.32;;;4.30;99.90;;;;;;6210002;23;20024;-80
2023/01/24 05:34:07;;;;;;;26.83;11.65;;;4.30;99.90;;;;;;6209138;23;20036;-79
2023/01/24 05:36:35;;;;;;;26.25;10.95;;;4.30;99.90;;;;;;6210307;23;20028;-79
2023/01/24 05:39:03;;;;;;;27.77;11.45;;;4.30;99.90;;;;;;6210476;23;20096;-79
2023/01/24 05:41:32;;;;;;;25.15;11.10;;;4.70;99.90;;;;;;6208397;23;20099;-79
2023/01/24 05:44:01;;;;;;;26.15;11.60;;;4.30;99.90;;;;;;6185191;23;20024;-79
2023/01/24 05:46:34;;;;;;;27.17;10.65;;;4.30;99.90;;;;;;6209834;23;20023;-79
2023/01/24 05:49:10;;;;;;;33.10;11.65;;;4.30;99.90;;;;;;6209865;23;20028;-79
2023/01/24 05:51:38;;;;;;;33.90;13.65;;;4.30;99.90;;;;;;6209068;23;20408;-79
2023/01/24 05:54:06;;;;;;;47.30;18.08;;;4.00;99.90;;;;;;6209816;23;20432;-79
2023/01/24 05:56:52;;;;;;;42.33;16.60;;;4.20;99.90;;;;;;6189057;23;20020;-79
2023/01/24 05:59:20;;;;;;;51.90;19.02;;;4.00;99.90;;;;;;6209889;23;20380;-79
2023/01/24 06:01:48;;;;;;;51.40;18.80;;;4.20;99.90;;;;;;6184461;23;20016;-79
2023/01/24 06:04:16;;;;;;;58.25;19.30;;;4.10;99.90;;;;;;6184996;23;20514;-78
2023/01/24 06:06:48;;;;;;;58.45;20.90;;;4.10;99.90;;;;;;6209561;23;20460;-79
2023/01/24 06:09:15;;;;;;;55.30;18.55;;;4.10;99.90;;;;;;6212114;23;20437;-79
2023/01/24 06:11:43;;;;;;;62.63;20.98;;;4.10;99.90;;;;;;6209257;23;20020;-78
2023/01/24 06:14:16;;;;;;;59.97;22.05;;;4.10;99.90;;;;;;6209160;23;20025;-79
2023/01/24 06:16:51;;;;;;;64.43;23.60;;;3.20;99.90;;;;;;6207928;23;20017;-78
2023/01/24 06:19:19;;;;;;;50.67;20.05;;;4.00;99.90;;;;;;6185121;23;20016;-78
2023/01/24 06:21:56;;;;;;;50.72;22.17;;;4.00;99.90;;;;;;6185384;23;20052;-78
2023/01/24 06:24:26;;;;;;;47.38;20.10;;;3.90;99.90;;;;;;6186091;23;20058;-78
2023/01/24 06:27:22;;;;;;;47.05;19.35;;;4.10;99.90;;;;;;6193062;23;20087;-78
2023/01/24 06:29:50;;;;;;;45.03;19.67;;;3.90;99.90;;;;;;6210024;23;20024;-79
2023/01/24 06:32:37;;;;;;;37.70;16.38;;;3.40;99.90;;;;;;6211139;23;20103;-78
2023/01/24 06:35:52;;;;;;;34.58;15.65;;;3.90;99.90;;;;;;6211870;23;20012;-78
2023/01/24 06:38:24;;;;;;;32.40;14.57;;;3.80;99.90;;;;;;6160387;23;20075;-79
2023/01/24 06:40:57;;;;;;;40.65;16.55;;;4.00;99.90;;;;;;6199491;23;20017;-79
2023/01/24 06:43:25;;;;;;;37.08;15.68;;;3.80;99.90;;;;;;6185984;23;20048;-78
2023/01/24 06:45:54;;;;;;;35.30;14.07;;;3.90;99.90;;;;;;6185683;23;20027;-78
2023/01/24 06:48:21;;;;;;;32.72;13.77;;;3.10;99.90;;;;;;6213113;23;20047;-77
2023/01/24 06:50:49;;;;;;;44.13;19.33;;;3.90;99.90;;;;;;6186178;23;20020;-77
2023/01/24 06:53:16;;;;;;;44.05;19.17;;;4.10;99.90;;;;;;6186514;23;20024;-77
2023/01/24 06:55:45;;;;;;;44.10;18.85;;;4.00;99.90;;;;;;6187013;23;20016;-78
2023/01/24 06:58:13;;;;;;;40.17;17.50;;;4.00;99.90;;;;;;6213169;23;20021;-78
2023/01/24 07:00:40;;;;;;;45.65;19.08;;;3.90;99.90;;;;;;6188198;23;20020;-79
2023/01/24 07:03:09;;;;;;;40.45;15.65;;;4.10;99.90;;;;;;6189202;23;20452;-78
2023/01/24 07:05:38;;;;;;;35.25;14.68;;;4.30;99.90;;;;;;6209231;23;20032;-78
2023/01/24 07:08:06;;;;;;;35.85;14.43;;;4.10;99.90;;;;;;6212089;23;20352;-78
2023/01/24 07:10:34;;;;;;;31.27;13.93;;;4.20;99.90;;;;;;6186680;23;20052;-78
2023/01/24 07:13:02;;;;;;;30.13;14.30;;;4.20;99.90;;;;;;6213866;23;20044;-78
2023/01/24 07:15:30;;;;;;;35.63;15.43;;;4.30;99.90;;;;;;6215326;23;20040;-78
2023/01/24 07:18:05;;;;;;;38.15;15.95;;;4.40;99.90;;;;;;6187592;23;20032;-78
2023/01/24 07:20:33;;;;;;;35.78;15.18;;;3.40;99.90;;;;;;6186203;23;20413;-78
2023/01/24 07:23:01;;;;;;;39.70;16.60;;;4.30;99.90;;;;;;6209593;23;20074;-78
2023/01/24 07:25:29;;;;;;;35.30;16.02;;;4.10;99.90;;;;;;6210274;23;20082;-78
2023/01/24 07:27:57;;;;;;;32.35;14.75;;;4.30;99.90;;;;;;6185430;23;20024;-78
2023/01/24 07:30:24;;;;;;;31.30;14.13;;;3.10;99.90;;;;;;6184629;23;20056;-78
2023/01/24 07:32:53;;;;;;;39.35;16.77;;;4.40;99.90;;;;;;6210415;23;20503;-78
2023/01/24 07:35:20;;;;;;;46.85;23.05;;;4.40;99.90;;;;;;6210860;23;20099;-77
2023/01/24 07:37:48;;;;;;;48.33;22.40;;;4.40;99.90;;;;;;6184475;23;20021;-79
2023/01/24 07:40:16;;;;;;;49.72;22.50;;;4.70;99.90;;;;;;6210969;23;20021;-79
2023/01/24 07:42:44;;;;;;;47.40;22.35;;;4.50;99.90;;;;;;6185735;23;20453;-79
2023/01/24 07:45:11;;;;;;;51.92;23.65;;;4.50;99.90;;;;;;6210874;23;20070;-79
2023/01/24 07:47:38;;;;;;;58.38;25.85;;;4.40;99.90;;;;;;6210654;23;20076;-79
2023/01/24 07:50:06;;;;;;;62.80;29.05;;;4.60;99.90;;;;;;6209901;23;20024;-79
2023/01/24 07:52:34;;;;;;;59.00;27.02;;;4.70;99.90;;;;;;6210477;23;20111;-79
2023/01/24 07:55:01;;;;;;;49.70;24.15;;;4.70;99.90;;;;;;6209606;23;20378;-79
2023/01/24 07:57:28;;;;;;;46.75;20.80;;;4.70;99.90;;;;;;6210373;23;20083;-79
2023/01/24 07:59:55;;;;;;;43.78;20.60;;;4.70;99.90;;;;;;6185080;23;20027;-79
2023/01/24 08:02:23;;;;;;;49.40;23.27;;;4.80;99.90;;;;;;6209321;23;20028;-79
2023/01/24 08:04:50;;;;;;;49.83;22.30;;;4.80;99.90;;;;;;6184679;23;20448;-79
2023/01/24 08:07:18;;;;;;;38.60;20.25;;;4.80;99.90;;;;;;6209490;23;20017;-79
2023/01/24 08:09:46;;;;;;;31.98;14.00;;;4.90;99.90;;;;;;6184404;23;20352;-79
2023/01/24 08:12:14;;;;;;;27.90;12.52;;;4.80;99.90;;;;;;6185105;23;20040;-79
2023/01/24 08:14:42;;;;;;;27.75;13.52;;;4.90;99.90;;;;;;6210063;23;20023;-78
2023/01/24 08:17:12;;;;;;;41.47;18.17;;;4.90;99.90;;;;;;6210535;23;20019;-78
2023/01/24 08:19:39;;;;;;;47.58;17.15;;;4.90;99.90;;;;;;6208983;23;20028;-77
2023/01/24 08:22:22;;;;;;;31.98;14.57;;;4.90;99.90;;;;;;6207618;23;20021;-78
2023/01/24 08:24:50;;;;;;;27.05;12.48;;;4.90;99.90;;;;;;6204692;23;20094;-78
2023/01/24 08:27:17;;;;;;;27.38;12.07;;;4.90;99.90;;;;;;6209204;23;20120;-76
2023/01/24 08:29:44;;;;;;;27.38;10.98;;;4.90;99.90;;;;;;6183778;23;20031;-76
2023/01/24 08:32:11;;;;;;;28.20;13.40;;;4.90;99.90;;;;;;6181773;23;20027;-78
2023/01/24 08:34:38;;;;;;;25.25;10.82;;;4.90;99.90;;;;;;6181780;23;20028;-77
2023/01/24 08:37:06;;;;;;;25.70;10.93;;;4.90;99.90;;;;;;6209768;23;20044;-78
2023/01/24 08:39:33;;;;;;;25.83;10.80;;;4.90;99.90;;;;;;6183766;23;20021;-78
2023/01/24 08:42:00;;;;;;;49.15;19.67;;;4.90;99.90;;;;;;6212173;23;20103;-78
2023/01/24 08:44:27;;;;;;;23.77;10.65;;;5.00;99.90;;;;;;6187659;23;20028;-79
2023/01/24 08:46:54;;;;;;;23.42;10.68;;;5.00;99.90;;;;;;6210651;23;20030;-79
2023/01/24 08:49:21;;;;;;;26.50;11.55;;;5.00;99.90;;;;;;6211576;23;20067;-79
2023/01/24 08:51:48;;;;;;;22.60;10.70;;;5.00;99.90;;;;;;6206877;23;20078;-79
2023/01/24 08:54:15;;;;;;;20.25;9.23;;;5.00;99.90;;;;;;6184038;23;20016;-78
2023/01/24 08:56:43;;;;;;;29.23;14.13;;;5.10;99.90;;;;;;6211372;23;20024;-78
2023/01/24 08:59:10;;;;;;;26.70;11.90;;;5.10;99.90;;;;;;6212659;23;20012;-78
2023/01/24 09:01:37;;;;;;;23.27;9.93;;;5.10;99.90;;;;;;6185538;23;20352;-78
2023/01/24 09:04:04;;;;;;;24.73;11.75;;;5.10;99.90;;;;;;6187170;23;20090;-78
2023/01/24 09:06:31;;;;;;;25.92;11.02;;;5.10;99.90;;;;;;6212026;23;20026;-78
2023/01/24 09:08:59;;;;;;;22.48;9.55;;;5.20;99.90;;;;;;6212130;23;20056;-78
2023/01/24 09:11:26;;;;;;;19.58;9.82;;;5.20;99.90;;;;;;6210311;23;20027;-78
2023/01/24 09:13:53;;;;;;;18.58;6.95;;;5.20;99.90;;;;;;6177987;23;20078;-78
2023/01/24 09:16:20;;;;;;;15.18;7.15;;;5.30;99.90;;;;;;6183051;23;20543;-78
2023/01/24 09:18:49;;;;;;;19.70;7.75;;;5.30;99.90;;;;;;6207623;23;20107;-78
2023/01/24 09:21:16;;;;;;;18.52;7.70;;;5.30;99.90;;;;;;6210385;23;20400;-78
2023/01/24 09:23:44;;;;;;;19.55;8.15;;;5.40;99.90;;;;;;6206033;23;20033;-78
2023/01/24 09:26:11;;;;;;;19.83;8.20;;;5.40;99.90;;;;;;6209398;23;20020;-78
2023/01/24 09:28:39;;;;;;;37.10;16.48;;;5.50;99.90;;;;;;6205410;23;20586;-78
2023/01/24 09:31:09;;;;;;;20.77;9.00;;;5.60;99.90;;;;;;6184729;23;20448;-78
2023/01/24 09:33:36;;;;;;;22.80;11.50;;;5.70;99.90;;;;;;6186270;23;20090;-78
2023/01/24 09:36:20;;;;;;;20.15;8.88;;;5.80;99.90;;;;;;6208225;23;20365;-78
2023/01/24 09:38:47;;;;;;;20.33;8.98;;;5.90;99.90;;;;;;6181871;23;20437;-77
2023/01/24 09:42:15;;;;;;;18.15;8.02;;;5.90;99.90;;;;;;6206760;23;20016;-77
2023/01/24 09:45:12;;;;;;;18.75;8.40;;;6.10;99.90;;;;;;6206330;23;20244;-77
2023/01/24 09:47:48;;;;;;;28.15;15.02;;;6.20;99.90;;;;;;6155708;23;20026;-77
2023/01/24 09:50:25;;;;;;;24.45;11.38;;;6.30;99.90;;;;;;6182319;23;20025;-77
2023/01/24 09:52:56;;;;;;;29.25;12.90;;;6.50;99.90;;;;;;6206682;23;20445;-77
2023/01/24 09:55:31;;;;;;;33.00;14.90;;;6.60;99.90;;;;;;6206528;23;20021;-78
2023/01/24 09:58:31;;;;;;;27.55;13.10;;;6.60;99.90;;;;;;6182231;23;20024;-78
2023/01/24 10:01:13;;;;;;;24.95;12.82;;;6.60;99.90;;;;;;6205508;23;20024;-78
2023/01/24 10:03:42;;;;;;;26.67;12.85;;;6.50;99.90;;;;;;6206940;23;20044;-78
2023/01/24 10:06:20;;;;;;;28.25;13.13;;;6.10;99.90;;;;;;6184474;23;20031;-78
2023/01/24 10:09:15;;;;;;;24.92;11.02;;;5.50;99.90;;;;;;6209200;23;20032;-78
2023/01/24 10:12:00;;;;;;;21.45;10.48;;;6.60;99.90;;;;;;6184213;23;20405;-78
2023/01/24 10:14:30;;;;;;;19.15;10.30;;;6.70;99.90;;;;;;6209931;23;20020;-78
2023/01/24 10:16:59;;;;;;;19.70;9.73;;;6.70;99.90;;;;;;6210171;23;20092;-78
2023/01/24 10:19:35;;;;;;;21.80;10.60;;;6.70;99.90;;;;;;6185585;23;20560;-78
2023/01/24 10:22:17;;;;;;;17.35;8.05;;;6.80;99.90;;;;;;6208826;23;20104;-78
2023/01/24 10:24:55;;;;;;;21.10;8.90;;;6.50;99.90;;;;;;6209362;23;20075;-78
2023/01/24 10:27:35;;;;;;;21.15;9.63;;;6.40;99.90;;;;;;6210381;23;20356;-78
2023/01/24 10:30:13;;;;;;;25.20;11.20;;;6.70;99.90;;;;;;6207435;23;20023;-78
2023/01/24 10:32:43;;;;;;;17.92;8.57;;;6.70;99.90;;;;;;6209621;23;20021;-78
2023/01/24 10:35:20;;;;;;;18.55;8.05;;;6.60;99.90;;;;;;6183894;23;20018;-78
2023/01/24 10:37:55;;;;;;;19.20;8.93;;;6.80;99.90;;;;;;6184843;23;20095;-78
2023/01/24 10:40:29;;;;;;;27.65;13.27;;;6.20;99.90;;;;;;6185111;23;20024;-77
2023/01/24 10:43:03;;;;;;;32.35;14.35;;;6.70;99.90;;;;;;6186299;23;20099;-77
2023/01/24 10:45:49;;;;;;;28.33;12.07;;;6.80;99.90;;;;;;6185880;23;20019;-77
2023/01/24 10:48:38;;;;;;;27.35;15.77;;;6.50;99.90;;;;;;6209332;23;20424;-77
2023/01/24 10:51:18;;;;;;;29.88;15.07;;;6.80;99.90;;;;;;6209707;23;20048;-77
2023/01/24 10:53:46;;;;;;;31.48;14.15;;;6.80;99.90;;;;;;6208351;23;20021;-77
2023/01/24 10:56:17;;;;;;;24.60;12.00;;;6.80;99.90;;;;;;6181553;23;20111;-77
2023/01/24 10:59:12;;;;;;;29.13;12.70;;;7.30;99.90;;;;;;6181733;23;20472;-77
2023/01/24 11:01:48;;;;;;;28.05;12.82;;;6.90;99.90;;;;;;6206413;23;20020;-77
2023/01/24 11:04:23;;;;;;;26.70;11.38;;;7.00;99.90;;;;;;6184280;23;20445;-77
2023/01/24 11:06:52;;;;;;;25.98;12.32;;;6.30;99.90;;;;;;6185291;23;20028;-77
2023/01/24 11:09:25;;;;;;;24.90;12.57;;;7.00;99.90;;;;;;6208326;23;20025;-77
2023/01/24 11:11:57;;;;;;;23.35;11.68;;;7.00;99.90;;;;;;6210994;23;20103;-77
2023/01/24 11:14:31;;;;;;;27.83;13.60;;;6.80;99.90;;;;;;6210573;23;20024;-77
2023/01/24 11:17:02;;;;;;;23.83;11.55;;;7.10;99.90;;;;;;6210051;23;20308;-77
2023/01/24 11:19:39;;;;;;;23.33;12.35;;;6.90;99.90;;;;;;6213240;23;20013;-77
2023/01/24 11:22:34;;;;;;;23.60;11.77;;;7.00;99.90;;;;;;6180398;23;20095;-77
2023/01/24 11:25:13;;;;;;;30.35;12.60;;;7.20;99.90;;;;;;6183298;23;20440;-77
2023/01/24 11:27:50;;;;;;;25.05;12.00;;;7.00;99.90;;;;;;6203371;23;20095;-77
2023/01/24 11:30:21;;;;;;;33.97;17.17;;;7.20;99.90;;;;;;6205920;23;20028;-77
2023/01/24 11:33:06;;;;;;;28.08;14.80;;;7.20;99.90;;;;;;6208531;23;20415;-77
2023/01/24 11:35:40;;;;;;;26.20;12.05;;;7.30;99.90;;;;;;6207616;23;20017;-79
2023/01/24 11:38:21;;;;;;;25.10;13.45;;;7.30;99.90;;;;;;6205588;23;20068;-78
2023/01/24 11:41:19;;;;;;;21.02;10.25;;;7.30;99.90;;;;;;6206807;23;20103;-78
2023/01/24 11:44:17;;;;;;;26.73;11.63;;;7.30;99.90;;;;;;6212679;23;20389;-78
2023/01/24 11:47:02;;;;;;;19.80;9.57;;;7.30;99.90;;;;;;6211521;23;20020;-78
2023/01/24 11:49:43;;;;;;;18.55;9.68;;;7.40;99.90;;;;;;6211587;23;20016;-78
2023/01/24 11:52:30;;;;;;;19.85;10.00;;;7.40;99.90;;;;;;6210008;23;20063;-78
2023/01/24 11:55:12;;;;;;;20.00;10.60;;;7.40;99.90;;;;;;6211462;23;20478;-78
2023/01/24 11:57:55;;;;;;;18.20;9.30;;;7.40;99.90;;;;;;6185136;23;20020;-78
2023/01/24 12:00:23;;;;;;;19.33;8.57;;;7.40;99.90;;;;;;6211971;23;20139;-78
2023/01/24 12:03:14;;;;;;;19.10;9.10;;;7.50;99.90;;;;;;6184368;23;20013;-78
2023/01/24 12:06:11;;;;;;;18.77;9.75;;;8.20;99.60;;;;;;6184661;23;20083;-78
2023/01/24 12:09:13;;;;;;;18.88;9.20;;;7.50;99.20;;;;;;6153407;23;20020;-78
2023/01/24 12:12:04;;;;;;;20.00;9.65;;;6.50;99.90;;;;;;6211843;23;20360;-78
2023/01/24 12:14:43;;;;;;;18.38;8.75;;;7.40;99.90;;;;;;6209740;23;20040;-78
2023/01/24 12:17:41;;;;;;;19.83;9.27;;;7.40;99.70;;;;;;6188122;23;20021;-78
2023/01/24 12:20:12;;;;;;;42.67;22.25;;;7.40;99.00;;;;;;6213048;23;20043;-78
2023/01/24 12:23:02;;;;;;;20.73;9.80;;;7.40;99.50;;;;;;6190965;23;20021;-78
2023/01/24 12:25:36;;;;;;;18.35;9.70;;;7.40;99.50;;;;;;6213333;23;20016;-78
2023/01/24 12:28:13;;;;;;;18.38;9.20;;;7.60;99.90;;;;;;6211900;23;20020;-78
2023/01/24 12:30:49;;;;;;;17.92;9.18;;;7.40;99.90;;;;;;6212380;23;20024;-78
2023/01/24 12:33:23;;;;;;;20.25;8.80;;;7.40;99.30;;;;;;6187968;23;20024;-78
2023/01/24 12:36:03;;;;;;;23.27;9.65;;;7.50;98.60;;;;;;6184182;23;20020;-78
2023/01/24 12:38:45;;;;;;;17.50;8.05;;;7.60;98.70;;;;;;6186094;23;20078;-78
2023/01/24 12:41:29;;;;;;;22.33;9.20;;;7.50;98.70;;;;;;6209934;23;20031;-78
2023/01/24 12:44:19;;;;;;;18.58;8.07;;;7.30;99.00;;;;;;6185541;23;20076;-78
2023/01/24 12:46:59;;;;;;;23.05;9.40;;;7.50;99.00;;;;;;6210718;23;20032;-78
2023/01/24 12:49:32;;;;;;;17.73;8.48;;;7.50;98.40;;;;;;6212326;23;20056;-78
2023/01/24 12:52:31;;;;;;;17.15;8.77;;;7.50;98.20;;;;;;6212223;23;20021;-78
2023/01/24 12:55:11;;;;;;;17.45;8.68;;;7.60;98.30;;;;;;6210098;23;20017;-78
2023/01/24 12:57:44;;;;;;;18.95;7.80;;;7.50;98.60;;;;;;6211187;23;20460;-78
2023/01/24 13:00:20;;;;;;;17.90;9.23;;;7.50;98.40;;;;;;6186251;23;20396;-78
2023/01/24 13:03:27;;;;;;;19.80;7.88;;;7.40;98.80;;;;;;6212335;23;20016;-78
2023/01/24 13:06:19;;;;;;;19.00;8.30;;;7.40;98.90;;;;;;6210364;23;20457;-78
2023/01/24 13:09:12;;;;;;;17.77;8.40;;;7.40;98.80;;;;;;6212011;23;20020;-78
2023/01/24 13:11:47;;;;;;;18.38;11.25;;;7.40;98.90;;;;;;6208312;23;20027;-78
2023/01/24 13:14:34;;;;;;;15.48;8.02;;;7.40;98.60;;;;;;6211813;23;20024;-78
2023/01/24 13:17:23;;;;;;;19.65;9.57;;;6.80;98.40;;;;;;6211052;23;20024;-78
2023/01/24 13:20:13;;;;;;;31.02;15.23;;;7.40;98.60;;;;;;6182956;23;20020;-78
2023/01/24 13:22:50;;;;;;;18.85;10.55;;;7.40;98.50;;;;;;6211971;23;20013;-78
2023/01/24 13:25:35;;;;;;;19.45;10.00;;;7.40;98.20;;;;;;6212454;23;20445;-78
2023/01/24 13:28:21;;;;;;;19.40;8.80;;;7.40;97.80;;;;;;6212874;23;20016;-78
2023/01/24 13:31:13;;;;;;;20.33;9.60;;;7.40;97.90;;;;;;6184599;23;20024;-78
2023/01/24 13:33:50;;;;;;;19.08;9.45;;;7.50;98.10;;;;;;6185892;23;20024;-79
2023/01/24 13:36:25;;;;;;;15.13;6.85;;;7.50;98.40;;;;;;6209142;23;20048;-79
2023/01/24 13:38:53;;;;;;;11.25;6.03;;;7.50;97.20;;;;;;6210220;23;20092;-79
2023/01/24 13:41:26;;;;;;;16.70;6.72;;;7.60;97.00;;;;;;6185325;23;20020;-78
2023/01/24 13:44:06;;;;;;;12.18;5.90;;;7.60;97.30;;;;;;6212889;23;20127;-78
2023/01/24 13:46:54;;;;;;;12.65;5.50;;;7.50;96.30;;;;;;6186892;23;20020;-78
2023/01/24 13:50:03;;;;;;;9.85;4.97;;;7.60;96.30;;;;;;6153782;23;20361;-78
2023/01/24 13:52:31;;;;;;;12.57;6.40;;;7.60;96.40;;;;;;6210375;23;20063;-78
2023/01/24 13:55:00;;;;;;;11.93;6.22;;;7.50;97.10;;;;;;6208008;23;20017;-78